sensor_id;sensor_type;location;lat;lon;timestamp;P1;durP1;ratioP1;P2;durP2;ratioP2
17812;SDS011;9030;50.792;8.320;2023-06-10T00:01:49;15.75;;;14.15;;
17812;SDS011;9030;50.792;8.320;2023-06-10T00:04:16;16.05;;;14.10;;
17812;SDS011;9030;50.792;8.320;2023-06-10T00:06:43;15.63;;;13.95;;
17812;SDS011;9030;50.792;8.320;2023-06-10T00:09:10;16.65;;;14.93;;
17812;SDS011;9030;50.792;8.320;2023-06-10T00:11:38;15.40;;;13.73;;
17812;SDS011;9030;50.792;8.320;2023-06-10T00:14:04;16.65;;;14.95;;
17812;SDS011;9030;50.792;8.320;2023-06-10T00:16:31;19.50;;;14.23;;
17812;SDS011;9030;50.792;8.320;2023-06-10T00:18:58;14.75;;;13.20;;
17812;SDS011;9030;50.792;8.320;2023-06-10T00:21:26;18.15;;;14.88;;
17812;SDS011;9030;50.792;8.320;2023-06-10T00:23:53;19.45;;;14.27;;
17812;SDS011;9030;50.792;8.320;2023-06-10T00:26:20;16.73;;;14.07;;
17812;SDS011;9030;50.792;8.320;2023-06-10T00:28:48;17.52;;;14.77;;
17812;SDS011;9030;50.792;8.320;2023-06-10T00:31:15;17.35;;;15.07;;
17812;SDS011;9030;50.792;8.320;2023-06-10T00:33:42;19.05;;;15.23;;
17812;SDS011;9030;50.792;8.320;2023-06-10T00:36:09;17.88;;;16.05;;
17812;SDS011;9030;50.792;8.320;2023-06-10T00:38:36;22.08;;;15.52;;
17812;SDS011;9030;50.792;8.320;2023-06-10T00:41:02;17.45;;;15.18;;
17812;SDS011;9030;50.792;8.320;2023-06-10T00:43:29;16.83;;;15.13;;
17812;SDS011;9030;50.792;8.320;2023-06-10T00:45:57;16.75;;;14.75;;
17812;SDS011;9030;50.792;8.320;2023-06-10T00:48:24;20.40;;;14.88;;
17812;SDS011;9030;50.792;8.320;2023-06-10T00:50:50;16.33;;;14.63;;
17812;SDS011;9030;50.792;8.320;2023-06-10T00:53:17;17.25;;;15.60;;
17812;SDS011;9030;50.792;8.320;2023-06-10T00:55:45;16.45;;;14.25;;
17812;SDS011;9030;50.792;8.320;2023-06-10T00:58:12;17.02;;;15.23;;
17812;SDS011;9030;50.792;8.320;2023-06-10T01:00:39;15.00;;;13.40;;
17812;SDS011;9030;50.792;8.320;2023-06-10T01:03:07;15.85;;;14.15;;
17812;SDS011;9030;50.792;8.320;2023-06-10T01:05:34;17.45;;;15.65;;
17812;SDS011;9030;50.792;8.320;2023-06-10T01:08:03;18.98;;;16.17;;
17812;SDS011;9030;50.792;8.320;2023-06-10T01:10:38;19.00;;;15.07;;
17812;SDS011;9030;50.792;8.320;2023-06-10T01:13:09;16.58;;;14.98;;
17812;SDS011;9030;50.792;8.320;2023-06-10T01:15:38;17.65;;;15.80;;
17812;SDS011;9030;50.792;8.320;2023-06-10T01:18:05;17.38;;;14.98;;
17812;SDS011;9030;50.792;8.320;2023-06-10T01:20:39;21.75;;;16.55;;
17812;SDS011;9030;50.792;8.320;2023-06-10T01:23:10;20.30;;;15.13;;
17812;SDS011;9030;50.792;8.320;2023-06-10T01:25:37;18.17;;;14.98;;
17812;SDS011;9030;50.792;8.320;2023-06-10T01:28:07;17.23;;;15.25;;
17812;SDS011;9030;50.792;8.320;2023-06-10T01:30:41;18.45;;;15.32;;
17812;SDS011;9030;50.792;8.320;2023-06-10T01:33:14;15.75;;;13.90;;
17812;SDS011;9030;50.792;8.320;2023-06-10T01:35:44;15.73;;;13.85;;
17812;SDS011;9030;50.792;8.320;2023-06-10T01:38:15;14.88;;;13.25;;
17812;SDS011;9030;50.792;8.320;2023-06-10T01:40:43;17.15;;;14.00;;
17812;SDS011;9030;50.792;8.320;2023-06-10T01:43:11;19.20;;;15.65;;
17812;SDS011;9030;50.792;8.320;2023-06-10T01:45:38;18.55;;;15.45;;
17812;SDS011;9030;50.792;8.320;2023-06-10T01:48:05;16.10;;;14.40;;
17812;SDS011;9030;50.792;8.320;2023-06-10T01:50:32;17.02;;;14.27;;
17812;SDS011;9030;50.792;8.320;2023-06-10T01:52:59;16.05;;;14.25;;
17812;SDS011;9030;50.792;8.320;2023-06-10T01:55:27;17.50;;;14.65;;
17812;SDS011;9030;50.792;8.320;2023-06-10T01:57:53;18.58;;;16.55;;
17812;SDS011;9030;50.792;8.320;2023-06-10T02:00:20;16.38;;;14.68;;
17812;SDS011;9030;50.792;8.320;2023-06-10T02:02:47;15.57;;;13.70;;
17812;SDS011;9030;50.792;8.320;2023-06-10T02:05:14;16.67;;;14.68;;
17812;SDS011;9030;50.792;8.320;2023-06-10T02:07:40;17.30;;;15.63;;
17812;SDS011;9030;50.792;8.320;2023-06-10T02:10:07;16.85;;;15.10;;
17812;SDS011;9030;50.792;8.320;2023-06-10T02:12:35;16.10;;;13.95;;
17812;SDS011;9030;50.792;8.320;2023-06-10T02:15:02;14.55;;;13.05;;
17812;SDS011;9030;50.792;8.320;2023-06-10T02:17:30;16.30;;;13.60;;
17812;SDS011;9030;50.792;8.320;2023-06-10T02:19:57;15.18;;;13.57;;
17812;SDS011;9030;50.792;8.320;2023-06-10T02:22:24;17.00;;;14.82;;
17812;SDS011;9030;50.792;8.320;2023-06-10T02:24:51;16.17;;;14.45;;
17812;SDS011;9030;50.792;8.320;2023-06-10T02:27:18;15.10;;;13.43;;
17812;SDS011;9030;50.792;8.320;2023-06-10T02:29:46;13.63;;;11.98;;
17812;SDS011;9030;50.792;8.320;2023-06-10T02:32:13;14.88;;;13.18;;
17812;SDS011;9030;50.792;8.320;2023-06-10T02:34:40;17.02;;;13.10;;
17812;SDS011;9030;50.792;8.320;2023-06-10T02:37:08;16.80;;;13.80;;
17812;SDS011;9030;50.792;8.320;2023-06-10T02:39:34;14.07;;;12.55;;
17812;SDS011;9030;50.792;8.320;2023-06-10T02:42:01;16.08;;;13.40;;
17812;SDS011;9030;50.792;8.320;2023-06-10T02:44:28;16.52;;;12.95;;
17812;SDS011;9030;50.792;8.320;2023-06-10T02:46:56;14.32;;;12.80;;
17812;SDS011;9030;50.792;8.320;2023-06-10T02:49:22;16.48;;;13.30;;
17812;SDS011;9030;50.792;8.320;2023-06-10T02:51:49;14.38;;;12.40;;
17812;SDS011;9030;50.792;8.320;2023-06-10T02:54:18;19.02;;;12.85;;
17812;SDS011;9030;50.792;8.320;2023-06-10T02:56:45;14.63;;;13.13;;
17812;SDS011;9030;50.792;8.320;2023-06-10T02:59:13;14.50;;;12.32;;
17812;SDS011;9030;50.792;8.320;2023-06-10T03:01:40;16.52;;;13.27;;
17812;SDS011;9030;50.792;8.320;2023-06-10T03:04:08;16.00;;;14.40;;
17812;SDS011;9030;50.792;8.320;2023-06-10T03:06:35;19.98;;;17.88;;
17812;SDS011;9030;50.792;8.320;2023-06-10T03:09:03;26.88;;;24.25;;
17812;SDS011;9030;50.792;8.320;2023-06-10T03:11:31;23.63;;;21.33;;
17812;SDS011;9030;50.792;8.320;2023-06-10T03:13:57;19.10;;;17.23;;
17812;SDS011;9030;50.792;8.320;2023-06-10T03:16:24;17.65;;;15.90;;
17812;SDS011;9030;50.792;8.320;2023-06-10T03:18:52;18.90;;;16.85;;
17812;SDS011;9030;50.792;8.320;2023-06-10T03:21:20;17.52;;;15.77;;
17812;SDS011;9030;50.792;8.320;2023-06-10T03:23:47;24.15;;;21.95;;
17812;SDS011;9030;50.792;8.320;2023-06-10T03:26:14;21.98;;;19.75;;
17812;SDS011;9030;50.792;8.320;2023-06-10T03:28:41;22.73;;;20.52;;
17812;SDS011;9030;50.792;8.320;2023-06-10T03:31:08;21.98;;;19.73;;
17812;SDS011;9030;50.792;8.320;2023-06-10T03:33:35;21.00;;;19.02;;
17812;SDS011;9030;50.792;8.320;2023-06-10T03:36:02;19.70;;;17.75;;
17812;SDS011;9030;50.792;8.320;2023-06-10T03:38:31;15.43;;;13.65;;
17812;SDS011;9030;50.792;8.320;2023-06-10T03:40:57;18.08;;;14.40;;
17812;SDS011;9030;50.792;8.320;2023-06-10T03:43:24;16.88;;;14.35;;
17812;SDS011;9030;50.792;8.320;2023-06-10T03:45:51;16.77;;;14.57;;
17812;SDS011;9030;50.792;8.320;2023-06-10T03:48:18;16.80;;;14.10;;
17812;SDS011;9030;50.792;8.320;2023-06-10T03:50:44;16.02;;;13.60;;
17812;SDS011;9030;50.792;8.320;2023-06-10T03:53:12;16.70;;;14.90;;
17812;SDS011;9030;50.792;8.320;2023-06-10T03:55:40;20.13;;;15.32;;
17812;SDS011;9030;50.792;8.320;2023-06-10T03:58:07;16.40;;;14.68;;
17812;SDS011;9030;50.792;8.320;2023-06-10T04:00:34;16.90;;;14.07;;
17812;SDS011;9030;50.792;8.320;2023-06-10T04:03:06;18.08;;;16.17;;
17812;SDS011;9030;50.792;8.320;2023-06-10T04:05:34;16.92;;;14.70;;
17812;SDS011;9030;50.792;8.320;2023-06-10T04:08:01;17.58;;;15.05;;
17812;SDS011;9030;50.792;8.320;2023-06-10T04:10:27;17.95;;;14.40;;
17812;SDS011;9030;50.792;8.320;2023-06-10T04:12:55;19.67;;;13.45;;
17812;SDS011;9030;50.792;8.320;2023-06-10T04:15:22;16.92;;;14.38;;
17812;SDS011;9030;50.792;8.320;2023-06-10T04:17:48;17.90;;;14.05;;
17812;SDS011;9030;50.792;8.320;2023-06-10T04:20:15;15.40;;;13.10;;
17812;SDS011;9030;50.792;8.320;2023-06-10T04:22:42;16.80;;;14.45;;
17812;SDS011;9030;50.792;8.320;2023-06-10T04:25:09;15.07;;;13.48;;
17812;SDS011;9030;50.792;8.320;2023-06-10T04:27:36;16.55;;;14.00;;
17812;SDS011;9030;50.792;8.320;2023-06-10T04:30:04;16.10;;;12.57;;
17812;SDS011;9030;50.792;8.320;2023-06-10T04:32:32;16.80;;;12.02;;
17812;SDS011;9030;50.792;8.320;2023-06-10T04:34:59;14.93;;;13.32;;
17812;SDS011;9030;50.792;8.320;2023-06-10T04:37:26;15.82;;;13.90;;
17812;SDS011;9030;50.792;8.320;2023-06-10T04:39:54;14.23;;;12.25;;
17812;SDS011;9030;50.792;8.320;2023-06-10T04:42:20;15.80;;;12.25;;
17812;SDS011;9030;50.792;8.320;2023-06-10T04:44:47;20.75;;;18.60;;
17812;SDS011;9030;50.792;8.320;2023-06-10T04:47:15;20.13;;;17.95;;
17812;SDS011;9030;50.792;8.320;2023-06-10T04:49:42;16.98;;;14.85;;
17812;SDS011;9030;50.792;8.320;2023-06-10T04:52:09;19.70;;;15.35;;
17812;SDS011;9030;50.792;8.320;2023-06-10T04:54:36;18.13;;;16.23;;
17812;SDS011;9030;50.792;8.320;2023-06-10T04:57:03;18.38;;;15.80;;
17812;SDS011;9030;50.792;8.320;2023-06-10T04:59:31;16.45;;;14.70;;
17812;SDS011;9030;50.792;8.320;2023-06-10T05:01:57;17.48;;;15.43;;
17812;SDS011;9030;50.792;8.320;2023-06-10T05:04:25;17.77;;;15.98;;
17812;SDS011;9030;50.792;8.320;2023-06-10T05:06:52;19.25;;;17.35;;
17812;SDS011;9030;50.792;8.320;2023-06-10T05:09:19;19.23;;;17.08;;
17812;SDS011;9030;50.792;8.320;2023-06-10T05:11:45;16.60;;;14.90;;
17812;SDS011;9030;50.792;8.320;2023-06-10T05:14:12;19.10;;;16.05;;
17812;SDS011;9030;50.792;8.320;2023-06-10T05:16:41;18.42;;;16.23;;
17812;SDS011;9030;50.792;8.320;2023-06-10T05:19:08;16.23;;;14.52;;
17812;SDS011;9030;50.792;8.320;2023-06-10T05:21:36;19.35;;;17.45;;
17812;SDS011;9030;50.792;8.320;2023-06-10T05:24:03;18.48;;;16.63;;
17812;SDS011;9030;50.792;8.320;2023-06-10T05:26:30;17.48;;;15.30;;
17812;SDS011;9030;50.792;8.320;2023-06-10T05:28:58;17.88;;;15.98;;
17812;SDS011;9030;50.792;8.320;2023-06-10T05:31:24;17.85;;;14.80;;
17812;SDS011;9030;50.792;8.320;2023-06-10T05:33:51;16.83;;;14.32;;
17812;SDS011;9030;50.792;8.320;2023-06-10T05:36:18;17.17;;;14.05;;
17812;SDS011;9030;50.792;8.320;2023-06-10T05:38:46;16.95;;;15.23;;
17812;SDS011;9030;50.792;8.320;2023-06-10T05:41:12;18.65;;;15.45;;
17812;SDS011;9030;50.792;8.320;2023-06-10T05:43:39;16.67;;;14.73;;
17812;SDS011;9030;50.792;8.320;2023-06-10T05:46:06;16.98;;;15.27;;
17812;SDS011;9030;50.792;8.320;2023-06-10T05:48:32;15.77;;;13.73;;
17812;SDS011;9030;50.792;8.320;2023-06-10T05:50:59;15.35;;;13.75;;
17812;SDS011;9030;50.792;8.320;2023-06-10T05:53:26;14.98;;;13.02;;
17812;SDS011;9030;50.792;8.320;2023-06-10T05:55:54;14.68;;;12.57;;
17812;SDS011;9030;50.792;8.320;2023-06-10T05:58:22;15.07;;;12.38;;
17812;SDS011;9030;50.792;8.320;2023-06-10T06:00:49;14.13;;;12.48;;
17812;SDS011;9030;50.792;8.320;2023-06-10T06:03:17;17.80;;;12.85;;
17812;SDS011;9030;50.792;8.320;2023-06-10T06:05:43;20.35;;;12.60;;
17812;SDS011;9030;50.792;8.320;2023-06-10T06:08:11;16.92;;;11.07;;
17812;SDS011;9030;50.792;8.320;2023-06-10T06:10:38;12.95;;;10.90;;
17812;SDS011;9030;50.792;8.320;2023-06-10T06:13:06;14.40;;;10.52;;
17812;SDS011;9030;50.792;8.320;2023-06-10T06:15:33;13.82;;;9.77;;
17812;SDS011;9030;50.792;8.320;2023-06-10T06:17:59;14.98;;;10.02;;
17812;SDS011;9030;50.792;8.320;2023-06-10T06:20:26;13.68;;;8.90;;
17812;SDS011;9030;50.792;8.320;2023-06-10T06:22:53;11.52;;;9.27;;
17812;SDS011;9030;50.792;8.320;2023-06-10T06:25:19;13.13;;;8.18;;
17812;SDS011;9030;50.792;8.320;2023-06-10T06:27:46;13.38;;;8.63;;
17812;SDS011;9030;50.792;8.320;2023-06-10T06:30:14;12.25;;;9.02;;
17812;SDS011;9030;50.792;8.320;2023-06-10T06:32:41;12.95;;;8.50;;
17812;SDS011;9030;50.792;8.320;2023-06-10T06:35:08;12.45;;;8.73;;
17812;SDS011;9030;50.792;8.320;2023-06-10T06:37:35;12.68;;;8.73;;
17812;SDS011;9030;50.792;8.320;2023-06-10T06:40:02;11.05;;;7.68;;
17812;SDS011;9030;50.792;8.320;2023-06-10T06:42:30;12.88;;;8.85;;
17812;SDS011;9030;50.792;8.320;2023-06-10T06:44:56;13.00;;;8.15;;
17812;SDS011;9030;50.792;8.320;2023-06-10T06:47:25;12.18;;;9.38;;
17812;SDS011;9030;50.792;8.320;2023-06-10T06:49:51;13.57;;;9.07;;
17812;SDS011;9030;50.792;8.320;2023-06-10T06:52:18;15.68;;;8.43;;
17812;SDS011;9030;50.792;8.320;2023-06-10T06:54:45;14.57;;;8.63;;
17812;SDS011;9030;50.792;8.320;2023-06-10T06:57:11;14.65;;;7.95;;
17812;SDS011;9030;50.792;8.320;2023-06-10T06:59:38;15.20;;;8.40;;
17812;SDS011;9030;50.792;8.320;2023-06-10T07:02:05;13.68;;;7.55;;
17812;SDS011;9030;50.792;8.320;2023-06-10T07:04:33;11.90;;;7.50;;
17812;SDS011;9030;50.792;8.320;2023-06-10T07:07:00;14.82;;;9.10;;
17812;SDS011;9030;50.792;8.320;2023-06-10T07:09:26;13.30;;;9.18;;
17812;SDS011;9030;50.792;8.320;2023-06-10T07:11:53;14.10;;;8.10;;
17812;SDS011;9030;50.792;8.320;2023-06-10T07:14:20;12.93;;;8.57;;
17812;SDS011;9030;50.792;8.320;2023-06-10T07:16:46;12.70;;;8.48;;
17812;SDS011;9030;50.792;8.320;2023-06-10T07:19:14;15.13;;;8.68;;
17812;SDS011;9030;50.792;8.320;2023-06-10T07:21:42;13.52;;;8.18;;
17812;SDS011;9030;50.792;8.320;2023-06-10T07:24:09;13.43;;;8.80;;
17812;SDS011;9030;50.792;8.320;2023-06-10T07:26:35;11.05;;;7.85;;
17812;SDS011;9030;50.792;8.320;2023-06-10T07:29:02;12.30;;;9.02;;
17812;SDS011;9030;50.792;8.320;2023-06-10T07:31:29;11.48;;;8.43;;
17812;SDS011;9030;50.792;8.320;2023-06-10T07:33:55;12.25;;;8.85;;
17812;SDS011;9030;50.792;8.320;2023-06-10T07:36:22;10.80;;;7.97;;
17812;SDS011;9030;50.792;8.320;2023-06-10T07:38:50;14.77;;;7.57;;
17812;SDS011;9030;50.792;8.320;2023-06-10T07:41:17;13.68;;;8.40;;
17812;SDS011;9030;50.792;8.320;2023-06-10T07:43:44;12.23;;;7.55;;
17812;SDS011;9030;50.792;8.320;2023-06-10T07:46:11;14.02;;;7.88;;
17812;SDS011;9030;50.792;8.320;2023-06-10T07:48:37;11.82;;;8.02;;
17812;SDS011;9030;50.792;8.320;2023-06-10T07:51:04;14.02;;;8.40;;
17812;SDS011;9030;50.792;8.320;2023-06-10T07:53:31;15.25;;;8.32;;
17812;SDS011;9030;50.792;8.320;2023-06-10T07:55:59;11.13;;;7.75;;
17812;SDS011;9030;50.792;8.320;2023-06-10T07:58:25;9.52;;;7.30;;
17812;SDS011;9030;50.792;8.320;2023-06-10T08:00:52;17.27;;;7.43;;
17812;SDS011;9030;50.792;8.320;2023-06-10T08:03:20;10.90;;;7.97;;
17812;SDS011;9030;50.792;8.320;2023-06-10T08:05:47;15.18;;;9.23;;
17812;SDS011;9030;50.792;8.320;2023-06-10T08:08:13;16.55;;;8.35;;
17812;SDS011;9030;50.792;8.320;2023-06-10T08:10:40;15.85;;;8.32;;
17812;SDS011;9030;50.792;8.320;2023-06-10T08:13:08;13.18;;;7.93;;
17812;SDS011;9030;50.792;8.320;2023-06-10T08:15:35;14.38;;;9.02;;
17812;SDS011;9030;50.792;8.320;2023-06-10T08:18:02;15.57;;;9.07;;
17812;SDS011;9030;50.792;8.320;2023-06-10T08:20:28;12.65;;;8.13;;
17812;SDS011;9030;50.792;8.320;2023-06-10T08:22:55;13.90;;;8.73;;
17812;SDS011;9030;50.792;8.320;2023-06-10T08:25:22;16.63;;;9.52;;
17812;SDS011;9030;50.792;8.320;2023-06-10T08:27:48;14.93;;;8.55;;
17812;SDS011;9030;50.792;8.320;2023-06-10T08:30:18;19.98;;;10.40;;
17812;SDS011;9030;50.792;8.320;2023-06-10T08:32:45;12.43;;;8.45;;
17812;SDS011;9030;50.792;8.320;2023-06-10T08:35:11;13.15;;;8.05;;
17812;SDS011;9030;50.792;8.320;2023-06-10T08:37:38;14.60;;;8.27;;
17812;SDS011;9030;50.792;8.320;2023-06-10T08:40:05;14.80;;;7.97;;
17812;SDS011;9030;50.792;8.320;2023-06-10T08:42:34;11.15;;;8.15;;
17812;SDS011;9030;50.792;8.320;2023-06-10T08:45:06;14.43;;;7.93;;
17812;SDS011;9030;50.792;8.320;2023-06-10T08:47:39;11.85;;;8.45;;
17812;SDS011;9030;50.792;8.320;2023-06-10T08:50:09;13.68;;;8.73;;
17812;SDS011;9030;50.792;8.320;2023-06-10T08:52:36;13.35;;;8.63;;
17812;SDS011;9030;50.792;8.320;2023-06-10T08:55:05;12.23;;;8.73;;
17812;SDS011;9030;50.792;8.320;2023-06-10T08:57:37;13.77;;;9.27;;
17812;SDS011;9030;50.792;8.320;2023-06-10T09:00:04;9.93;;;7.82;;
17812;SDS011;9030;50.792;8.320;2023-06-10T09:02:32;11.35;;;8.32;;
17812;SDS011;9030;50.792;8.320;2023-06-10T09:05:02;12.75;;;7.97;;
17812;SDS011;9030;50.792;8.320;2023-06-10T09:07:31;14.35;;;9.25;;
17812;SDS011;9030;50.792;8.320;2023-06-10T09:09:59;11.00;;;8.88;;
17812;SDS011;9030;50.792;8.320;2023-06-10T09:12:29;12.20;;;8.38;;
17812;SDS011;9030;50.792;8.320;2023-06-10T09:14:56;13.48;;;8.55;;
17812;SDS011;9030;50.792;8.320;2023-06-10T09:17:23;12.55;;;8.52;;
17812;SDS011;9030;50.792;8.320;2023-06-10T09:19:50;11.43;;;7.90;;
17812;SDS011;9030;50.792;8.320;2023-06-10T09:22:20;10.90;;;8.23;;
17812;SDS011;9030;50.792;8.320;2023-06-10T09:24:47;13.43;;;8.30;;
17812;SDS011;9030;50.792;8.320;2023-06-10T09:27:14;12.10;;;8.73;;
17812;SDS011;9030;50.792;8.320;2023-06-10T09:29:47;11.20;;;8.85;;
17812;SDS011;9030;50.792;8.320;2023-06-10T09:32:17;10.75;;;6.55;;
17812;SDS011;9030;50.792;8.320;2023-06-10T09:34:47;9.82;;;7.35;;
17812;SDS011;9030;50.792;8.320;2023-06-10T09:37:20;12.10;;;7.38;;
17812;SDS011;9030;50.792;8.320;2023-06-10T09:40:04;10.30;;;7.72;;
17812;SDS011;9030;50.792;8.320;2023-06-10T09:42:33;49.58;;;11.35;;
17812;SDS011;9030;50.792;8.320;2023-06-10T09:45:00;11.75;;;8.02;;
17812;SDS011;9030;50.792;8.320;2023-06-10T09:47:27;13.15;;;8.35;;
17812;SDS011;9030;50.792;8.320;2023-06-10T09:49:55;16.33;;;8.82;;
17812;SDS011;9030;50.792;8.320;2023-06-10T09:52:23;11.77;;;7.38;;
17812;SDS011;9030;50.792;8.320;2023-06-10T09:54:50;11.50;;;7.47;;
17812;SDS011;9030;50.792;8.320;2023-06-10T09:57:17;10.70;;;7.50;;
17812;SDS011;9030;50.792;8.320;2023-06-10T09:59:45;15.45;;;8.40;;
17812;SDS011;9030;50.792;8.320;2023-06-10T10:02:15;17.73;;;7.65;;
17812;SDS011;9030;50.792;8.320;2023-06-10T10:04:42;10.23;;;7.35;;
17812;SDS011;9030;50.792;8.320;2023-06-10T10:07:10;13.18;;;7.63;;
17812;SDS011;9030;50.792;8.320;2023-06-10T10:09:38;9.73;;;7.13;;
17812;SDS011;9030;50.792;8.320;2023-06-10T10:12:07;13.13;;;8.60;;
17812;SDS011;9030;50.792;8.320;2023-06-10T10:14:37;13.40;;;7.15;;
17812;SDS011;9030;50.792;8.320;2023-06-10T10:17:26;17.05;;;8.35;;
17812;SDS011;9030;50.792;8.320;2023-06-10T10:19:53;14.18;;;7.25;;
17812;SDS011;9030;50.792;8.320;2023-06-10T10:22:25;12.73;;;6.88;;
17812;SDS011;9030;50.792;8.320;2023-06-10T10:24:55;11.18;;;7.45;;
17812;SDS011;9030;50.792;8.320;2023-06-10T10:27:26;16.90;;;8.10;;
17812;SDS011;9030;50.792;8.320;2023-06-10T10:29:54;11.27;;;7.18;;
17812;SDS011;9030;50.792;8.320;2023-06-10T10:32:21;13.13;;;6.65;;
17812;SDS011;9030;50.792;8.320;2023-06-10T10:34:56;11.32;;;6.28;;
17812;SDS011;9030;50.792;8.320;2023-06-10T10:37:30;10.15;;;6.05;;
17812;SDS011;9030;50.792;8.320;2023-06-10T10:39:58;13.98;;;7.25;;
17812;SDS011;9030;50.792;8.320;2023-06-10T10:42:26;11.40;;;6.60;;
17812;SDS011;9030;50.792;8.320;2023-06-10T10:44:53;14.15;;;6.88;;
17812;SDS011;9030;50.792;8.320;2023-06-10T10:47:21;12.75;;;6.55;;
17812;SDS011;9030;50.792;8.320;2023-06-10T10:49:48;9.15;;;6.55;;
17812;SDS011;9030;50.792;8.320;2023-06-10T10:52:18;9.20;;;6.55;;
17812;SDS011;9030;50.792;8.320;2023-06-10T10:54:45;11.15;;;6.20;;
17812;SDS011;9030;50.792;8.320;2023-06-10T10:57:14;8.63;;;5.75;;
17812;SDS011;9030;50.792;8.320;2023-06-10T10:59:43;13.07;;;6.97;;
17812;SDS011;9030;50.792;8.320;2023-06-10T11:02:35;11.35;;;5.65;;
17812;SDS011;9030;50.792;8.320;2023-06-10T11:05:04;11.05;;;6.55;;
17812;SDS011;9030;50.792;8.320;2023-06-10T11:07:32;8.68;;;6.05;;
17812;SDS011;9030;50.792;8.320;2023-06-10T11:10:01;9.07;;;5.85;;
17812;SDS011;9030;50.792;8.320;2023-06-10T11:12:41;12.32;;;6.93;;
17812;SDS011;9030;50.792;8.320;2023-06-10T11:15:17;11.30;;;7.47;;
17812;SDS011;9030;50.792;8.320;2023-06-10T11:20:44;11.93;;;7.15;;
17812;SDS011;9030;50.792;8.320;2023-06-10T11:23:33;10.63;;;6.28;;
17812;SDS011;9030;50.792;8.320;2023-06-10T11:26:09;12.25;;;6.65;;
17812;SDS011;9030;50.792;8.320;2023-06-10T11:28:38;11.43;;;7.00;;
17812;SDS011;9030;50.792;8.320;2023-06-10T11:31:05;12.77;;;7.05;;
17812;SDS011;9030;50.792;8.320;2023-06-10T11:33:31;12.43;;;6.97;;
17812;SDS011;9030;50.792;8.320;2023-06-10T11:35:58;11.75;;;6.65;;
17812;SDS011;9030;50.792;8.320;2023-06-10T11:38:25;11.88;;;7.45;;
17812;SDS011;9030;50.792;8.320;2023-06-10T11:40:54;9.13;;;6.78;;
17812;SDS011;9030;50.792;8.320;2023-06-10T11:43:22;8.85;;;6.47;;
17812;SDS011;9030;50.792;8.320;2023-06-10T11:45:54;9.60;;;6.57;;
17812;SDS011;9030;50.792;8.320;2023-06-10T11:48:21;10.90;;;6.78;;
17812;SDS011;9030;50.792;8.320;2023-06-10T11:50:48;17.10;;;7.22;;
17812;SDS011;9030;50.792;8.320;2023-06-10T11:53:15;11.23;;;7.15;;
17812;SDS011;9030;50.792;8.320;2023-06-10T11:55:43;11.73;;;6.65;;
17812;SDS011;9030;50.792;8.320;2023-06-10T11:58:13;10.07;;;6.10;;
17812;SDS011;9030;50.792;8.320;2023-06-10T12:00:44;14.13;;;7.22;;
17812;SDS011;9030;50.792;8.320;2023-06-10T12:03:15;10.40;;;6.68;;
17812;SDS011;9030;50.792;8.320;2023-06-10T12:05:54;13.73;;;7.90;;
17812;SDS011;9030;50.792;8.320;2023-06-10T12:08:22;10.90;;;6.40;;
17812;SDS011;9030;50.792;8.320;2023-06-10T12:10:49;12.15;;;6.45;;
17812;SDS011;9030;50.792;8.320;2023-06-10T12:13:16;10.43;;;6.55;;
17812;SDS011;9030;50.792;8.320;2023-06-10T12:15:43;10.85;;;6.38;;
17812;SDS011;9030;50.792;8.320;2023-06-10T12:18:16;10.13;;;6.35;;
17812;SDS011;9030;50.792;8.320;2023-06-10T12:20:44;12.57;;;6.80;;
17812;SDS011;9030;50.792;8.320;2023-06-10T12:23:11;9.80;;;7.18;;
17812;SDS011;9030;50.792;8.320;2023-06-10T12:25:38;10.50;;;6.80;;
17812;SDS011;9030;50.792;8.320;2023-06-10T12:28:09;13.30;;;6.78;;
17812;SDS011;9030;50.792;8.320;2023-06-10T12:30:36;10.48;;;6.68;;
17812;SDS011;9030;50.792;8.320;2023-06-10T12:33:03;10.98;;;6.50;;
17812;SDS011;9030;50.792;8.320;2023-06-10T12:35:31;13.23;;;7.32;;
17812;SDS011;9030;50.792;8.320;2023-06-10T12:37:59;10.80;;;7.97;;
17812;SDS011;9030;50.792;8.320;2023-06-10T12:40:27;12.02;;;6.88;;
17812;SDS011;9030;50.792;8.320;2023-06-10T12:42:54;12.25;;;7.43;;
17812;SDS011;9030;50.792;8.320;2023-06-10T12:45:28;15.43;;;7.32;;
17812;SDS011;9030;50.792;8.320;2023-06-10T12:48:04;24.13;;;8.23;;
17812;SDS011;9030;50.792;8.320;2023-06-10T12:50:35;11.35;;;6.40;;
17812;SDS011;9030;50.792;8.320;2023-06-10T12:53:02;11.35;;;6.90;;
17812;SDS011;9030;50.792;8.320;2023-06-10T12:55:29;16.83;;;7.28;;
17812;SDS011;9030;50.792;8.320;2023-06-10T12:57:57;9.60;;;7.18;;
17812;SDS011;9030;50.792;8.320;2023-06-10T13:00:24;9.82;;;6.35;;
17812;SDS011;9030;50.792;8.320;2023-06-10T13:02:53;15.27;;;6.70;;
17812;SDS011;9030;50.792;8.320;2023-06-10T13:05:19;9.50;;;6.38;;
17812;SDS011;9030;50.792;8.320;2023-06-10T13:07:47;11.55;;;7.00;;
17812;SDS011;9030;50.792;8.320;2023-06-10T13:10:14;12.40;;;6.88;;
17812;SDS011;9030;50.792;8.320;2023-06-10T13:12:42;12.13;;;7.95;;
17812;SDS011;9030;50.792;8.320;2023-06-10T13:15:09;12.13;;;6.60;;
17812;SDS011;9030;50.792;8.320;2023-06-10T13:17:37;14.15;;;7.10;;
17812;SDS011;9030;50.792;8.320;2023-06-10T13:20:05;11.10;;;6.32;;
17812;SDS011;9030;50.792;8.320;2023-06-10T13:22:33;9.70;;;6.30;;
17812;SDS011;9030;50.792;8.320;2023-06-10T13:25:03;11.93;;;7.72;;
17812;SDS011;9030;50.792;8.320;2023-06-10T13:27:30;12.38;;;7.00;;
17812;SDS011;9030;50.792;8.320;2023-06-10T13:29:56;11.88;;;6.60;;
17812;SDS011;9030;50.792;8.320;2023-06-10T13:32:23;8.68;;;6.40;;
17812;SDS011;9030;50.792;8.320;2023-06-10T13:34:50;10.38;;;6.28;;
17812;SDS011;9030;50.792;8.320;2023-06-10T13:37:18;8.10;;;6.30;;
17812;SDS011;9030;50.792;8.320;2023-06-10T13:39:45;10.48;;;6.65;;
17812;SDS011;9030;50.792;8.320;2023-06-10T13:42:14;9.45;;;6.50;;
17812;SDS011;9030;50.792;8.320;2023-06-10T13:44:41;11.90;;;6.68;;
17812;SDS011;9030;50.792;8.320;2023-06-10T13:47:07;9.10;;;6.25;;
17812;SDS011;9030;50.792;8.320;2023-06-10T13:49:34;15.27;;;7.63;;
17812;SDS011;9030;50.792;8.320;2023-06-10T13:52:01;10.63;;;6.65;;
17812;SDS011;9030;50.792;8.320;2023-06-10T13:54:28;10.52;;;6.30;;
17812;SDS011;9030;50.792;8.320;2023-06-10T13:56:55;10.70;;;7.07;;
17812;SDS011;9030;50.792;8.320;2023-06-10T13:59:26;10.30;;;6.68;;
17812;SDS011;9030;50.792;8.320;2023-06-10T14:01:53;14.68;;;8.32;;
17812;SDS011;9030;50.792;8.320;2023-06-10T14:04:20;11.93;;;6.97;;
17812;SDS011;9030;50.792;8.320;2023-06-10T14:06:47;9.65;;;7.13;;
17812;SDS011;9030;50.792;8.320;2023-06-10T14:09:14;12.38;;;6.97;;
17812;SDS011;9030;50.792;8.320;2023-06-10T14:11:41;9.45;;;6.90;;
17812;SDS011;9030;50.792;8.320;2023-06-10T14:14:08;11.73;;;7.05;;
17812;SDS011;9030;50.792;8.320;2023-06-10T14:16:36;9.98;;;6.80;;
17812;SDS011;9030;50.792;8.320;2023-06-10T14:19:03;12.35;;;7.00;;
17812;SDS011;9030;50.792;8.320;2023-06-10T14:21:29;9.00;;;6.55;;
17812;SDS011;9030;50.792;8.320;2023-06-10T14:23:56;14.38;;;7.20;;
17812;SDS011;9030;50.792;8.320;2023-06-10T14:26:23;11.55;;;6.65;;
17812;SDS011;9030;50.792;8.320;2023-06-10T14:28:51;11.10;;;6.70;;
17812;SDS011;9030;50.792;8.320;2023-06-10T14:31:18;9.77;;;6.65;;
17812;SDS011;9030;50.792;8.320;2023-06-10T14:33:46;10.18;;;6.50;;
17812;SDS011;9030;50.792;8.320;2023-06-10T14:36:12;9.63;;;5.75;;
17812;SDS011;9030;50.792;8.320;2023-06-10T14:38:39;9.93;;;6.45;;
17812;SDS011;9030;50.792;8.320;2023-06-10T14:41:06;9.77;;;6.50;;
17812;SDS011;9030;50.792;8.320;2023-06-10T14:43:32;12.68;;;7.47;;
17812;SDS011;9030;50.792;8.320;2023-06-10T14:45:59;9.43;;;6.25;;
17812;SDS011;9030;50.792;8.320;2023-06-10T14:48:26;10.48;;;6.22;;
17812;SDS011;9030;50.792;8.320;2023-06-10T14:50:54;9.75;;;6.13;;